Terminal Aerodrome Forecast
Issued by NWS

Current Version | Previous Version | Text Only | Print | Product List | Glossary On
Versions: 1 2 3 4 5 6 7 8 9 10 11 12 13 14 15 16 17 18 19 20 21 22 23 24 25 26 27 28 29 30 31 32 33 34 35 36 37 38 39 40 41 42 43 44 45 46 47 48 49 50
000 FTUS42 KRAH 051746 AAA TAFRWI TAF AMD KRWI 051746Z 0518/0618 03008KT 4SM -RA SCT007 OVC015 TEMPO 0518/0522 2SM +SHRA BKN007 FM052300 35008KT 3SM -SHRA SCT005 OVC012 FM060600 32006KT 2SM -SHRA BR SCT002 OVC005 FM061700 33010G16KT P6SM SCT015 BKN040=

USA.gov is the U.S. government's official web portal to all federal, state and local government web resources and services.